Wayne, NE (68787)

10:21 AM CDT on July 29, 2016 (GMT -0500)
Courthouse Hill | | Change Station

Elev 1512 ft 42.23 °N, 97.02 °W | Updated 14 seconds ago

Clear
Clear
73.8 °F
Feels Like 75 °F
N
0.0
Wind Variable Wind from SW
Gusts 0.0 mph

Today
High -- | Low -- °F
--% Chance of Precip.
Yesterday
High -- | Low -- °F
Precip. -- in
Pressure 30.10 in
Visibility 10.0 miles
Clouds Clear
Heat Index 75 °F
Dew Point 64 °F
Humidity 72%
Rainfall 0.00 in
Snow Depth Not available.
6:18 AM 8:49 PM
Waning Crescent, 21% visible
METAR KLCG 291515Z AUTO 06004KT 10SM CLR 21/17 A3010 RMK AO2 T02130172
Pressure 30.10 in
Visibility 10.0 miles
Clouds Clear
Heat Index 75 °F
Dew Point 64 °F
Humidity 72%
Rainfall 0.00 in
Snow Depth Not available.
6:18 AM 8:49 PM
Waning Crescent, 21% visible
METAR KLCG 291515Z AUTO 06004KT 10SM CLR 21/17 A3010 RMK AO2 T02130172

10-Day Weather Forecast

Almanac

Astronomy

Jul. 29, 2016 Rise Set
Actual Time
Civil Twilight
Nautical Twilight
Astronomical Twilight
Moon
Length of Visible Light
Length of Day
Tomorrow will be .
, % of the Moon is Illuminated

Today's Extremes

State Highs State Lows

Community

WunderPhotos

Upload Photos

1,928,346 photos uploaded!

WunderBlog® & News

Nearby

Air Quality

  Air Quality AQ Index Pollutant
Not available.

Snow Depth

Station Depth Elevation

Earthquake Activity

City Distance Mag. Time & Date
Minimum magnitude displayed is 2.5.

Coastal Water Temperatures

Place Temperature

Stations

Nearby Weather Stations

Station Location Temp. Windchill Dew Point Humidity Wind Precip. Elev Updated Type
                   

Watches & Warnings

There are currently no watches in effect.